Terminal Aerodrome Forecast
Issued by NWS

Home | Current Version | Previous Version | Text Only | Print | Product List | Glossary On
Versions: 1 2 3 4 5 6 7 8 9 10 11 12 13 14 15 16 17 18 19 20
000
FTUS44 KLIX 220900 AAA
TAFMCB
TAF AMD
KMCB 220941Z 2210/2306 00000KT 3/4SM BR VV002
      TEMPO 2210/2213 1/4SM FG VV002
     FM221400 16003KT 2SM BR BKN008
     FM221500 17008KT P6SM BKN016
     FM221800 18010KT P6SM BKN025
     FM222330 17007KT P6SM BKN015=

USA.gov is the U.S. government's official web portal to all federal, state and local government web resources and services.